createdAt,value
2023-02-22T00:01:50.863Z,4.64
2023-02-22T00:04:21.297Z,4.53
2023-02-22T00:06:49.521Z,4.36
2023-02-22T00:09:20.622Z,4.39
2023-02-22T00:11:48.733Z,4.30
2023-02-22T00:14:15.908Z,4.29
2023-02-22T00:16:42.488Z,4.21
2023-02-22T00:19:10.587Z,4.18
2023-02-22T00:21:37.533Z,4.00
2023-02-22T00:24:23.251Z,4.19
2023-02-22T00:26:52.160Z,4.42
2023-02-22T00:29:18.764Z,4.57
2023-02-22T00:31:45.545Z,4.61
2023-02-22T00:34:13.876Z,4.68
2023-02-22T00:36:49.352Z,4.43
2023-02-22T00:39:16.565Z,4.34
2023-02-22T00:41:43.652Z,4.23
2023-02-22T00:44:10.500Z,4.02
2023-02-22T00:46:37.348Z,3.86
2023-02-22T00:49:05.279Z,3.87
2023-02-22T00:51:31.849Z,3.74
2023-02-22T00:53:58.502Z,3.75
2023-02-22T00:56:25.354Z,3.83
2023-02-22T00:58:51.845Z,4.01
2023-02-22T01:01:18.718Z,4.01
2023-02-22T01:03:46.099Z,4.26
2023-02-22T01:06:12.690Z,4.07
2023-02-22T01:08:44.370Z,4.01
2023-02-22T01:11:10.958Z,3.91
2023-02-22T01:13:38.349Z,3.87
2023-02-22T01:16:08.302Z,3.76
2023-02-22T01:18:38.123Z,3.62
2023-02-22T01:21:05.553Z,3.74
2023-02-22T01:23:32.300Z,3.76
2023-02-22T01:25:58.977Z,3.92
2023-02-22T01:28:25.522Z,3.83
2023-02-22T01:30:52.692Z,3.95
2023-02-22T01:33:19.358Z,3.87
2023-02-22T01:35:46.518Z,3.82
2023-02-22T01:38:14.231Z,3.80
2023-02-22T01:40:43.281Z,3.75
2023-02-22T01:43:29.556Z,3.66
2023-02-22T01:46:02.178Z,3.52
2023-02-22T01:48:31.382Z,3.40
2023-02-22T01:51:18.374Z,3.36
2023-02-22T01:53:55.283Z,3.34
2023-02-22T01:56:25.361Z,3.30
2023-02-22T01:59:11.698Z,3.32
2023-02-22T02:01:39.786Z,3.29
2023-02-22T02:04:20.722Z,3.30
2023-02-22T02:06:48.310Z,3.11
2023-02-22T02:09:20.365Z,3.05
2023-02-22T02:11:47.558Z,2.92
2023-02-22T02:14:15.219Z,3.06
2023-02-22T02:16:45.805Z,2.98
2023-02-22T02:19:49.801Z,3.05
2023-02-22T02:22:16.302Z,3.19
2023-02-22T02:25:18.156Z,3.02
2023-02-22T02:28:19.754Z,2.88
2023-02-22T02:30:56.974Z,2.95
2023-02-22T02:33:33.082Z,3.04
2023-02-22T02:36:02.367Z,3.15
2023-02-22T02:38:38.036Z,3.00
2023-02-22T02:41:19.512Z,2.95
2023-02-22T02:43:48.289Z,3.05
2023-02-22T02:46:22.046Z,3.19
2023-02-22T02:48:56.938Z,3.24
2023-02-22T02:51:29.393Z,3.27
2023-02-22T02:53:56.739Z,3.28
2023-02-22T02:56:26.050Z,3.23
2023-02-22T02:58:54.133Z,3.26
2023-02-22T03:01:26.700Z,3.13
2023-02-22T03:04:04.286Z,2.93
2023-02-22T03:06:39.543Z,2.69
2023-02-22T03:09:27.944Z,2.82
2023-02-22T03:12:19.395Z,2.90
2023-02-22T03:15:09.027Z,2.94
2023-02-22T03:17:52.723Z,2.76
2023-02-22T03:20:33.540Z,2.85
2023-02-22T03:23:39.101Z,2.88
2023-02-22T03:26:13.181Z,2.99
2023-02-22T03:28:43.811Z,2.86
2023-02-22T03:31:26.131Z,2.68
2023-02-22T03:33:58.475Z,2.55
2023-02-22T03:36:33.944Z,2.63
2023-02-22T03:39:04.290Z,2.61
2023-02-22T03:41:32.289Z,2.67
2023-02-22T03:44:09.482Z,2.50
2023-02-22T03:46:40.302Z,2.49
2023-02-22T03:49:17.645Z,2.50
2023-02-22T03:51:44.364Z,2.62
2023-02-22T03:54:16.318Z,2.69
2023-02-22T03:56:50.009Z,2.71
2023-02-22T03:59:17.730Z,2.71
2023-02-22T04:01:44.412Z,2.81
2023-02-22T04:04:11.054Z,2.86
2023-02-22T04:06:37.811Z,2.84
2023-02-22T04:09:04.585Z,2.72
2023-02-22T04:11:31.109Z,2.56
2023-02-22T04:13:58.435Z,2.40
2023-02-22T04:16:24.862Z,2.33
2023-02-22T04:18:51.386Z,2.22
2023-02-22T04:21:18.235Z,2.25
2023-02-22T04:23:45.005Z,2.13
2023-02-22T04:26:11.560Z,2.23
2023-02-22T04:28:38.123Z,2.18
2023-02-22T04:31:04.847Z,2.25
2023-02-22T04:33:31.376Z,2.26
2023-02-22T04:35:58.053Z,2.25
2023-02-22T04:38:28.305Z,2.25
2023-02-22T04:40:56.113Z,2.35
2023-02-22T04:43:22.803Z,2.25
2023-02-22T04:45:49.373Z,2.18
2023-02-22T04:48:16.075Z,2.33
2023-02-22T04:50:42.744Z,2.28
2023-02-22T04:53:09.284Z,2.33
2023-02-22T04:55:35.899Z,2.14
2023-02-22T04:58:02.468Z,2.22
2023-02-22T05:00:29.343Z,2.33
2023-02-22T05:02:56.036Z,2.26
2023-02-22T05:05:23.169Z,2.23
2023-02-22T05:07:50.436Z,2.06
2023-02-22T05:10:17.044Z,2.07
2023-02-22T05:12:43.583Z,2.17
2023-02-22T05:15:10.964Z,2.28
2023-02-22T05:17:37.481Z,2.14
2023-02-22T05:20:05.427Z,2.09
2023-02-22T05:22:32.062Z,2.09
2023-02-22T05:24:58.535Z,1.95
2023-02-22T05:27:25.412Z,1.77
2023-02-22T05:29:51.979Z,1.84
2023-02-22T05:32:18.624Z,1.77
2023-02-22T05:34:45.727Z,1.65
2023-02-22T05:37:12.240Z,1.71
2023-02-22T05:39:39.038Z,1.80
2023-02-22T05:42:05.571Z,1.84
2023-02-22T05:44:32.147Z,1.90
2023-02-22T05:46:58.680Z,1.89
2023-02-22T05:49:25.265Z,1.80
2023-02-22T05:51:51.880Z,1.70
2023-02-22T05:54:18.399Z,1.60
2023-02-22T05:56:44.945Z,1.60
2023-02-22T05:59:11.500Z,1.65
2023-02-22T06:01:38.207Z,1.70
2023-02-22T06:04:04.854Z,1.69
2023-02-22T06:06:31.413Z,1.73
2023-02-22T06:08:57.986Z,1.78
2023-02-22T06:11:24.576Z,1.95
2023-02-22T06:13:52.766Z,2.10
2023-02-22T06:16:23.904Z,2.20
2023-02-22T06:18:50.640Z,2.40
2023-02-22T06:21:17.835Z,2.87
2023-02-22T06:23:44.620Z,3.36
2023-02-22T06:26:11.154Z,3.84
2023-02-22T06:28:37.736Z,4.32
2023-02-22T06:31:04.417Z,4.65
2023-02-22T06:33:31.010Z,4.90
2023-02-22T06:35:57.543Z,5.01
2023-02-22T06:38:25.746Z,5.28
2023-02-22T06:40:52.314Z,5.70
2023-02-22T06:43:18.965Z,6.03
2023-02-22T06:45:46.031Z,6.22
2023-02-22T06:48:13.236Z,6.42
2023-02-22T06:50:39.858Z,6.64
2023-02-22T06:53:07.667Z,6.98
2023-02-22T06:55:35.258Z,7.18
2023-02-22T06:58:03.895Z,7.53
2023-02-22T07:00:32.208Z,7.92
2023-02-22T07:02:59.528Z,8.22
2023-02-22T07:05:27.351Z,8.41
2023-02-22T07:07:55.562Z,8.69
2023-02-22T07:10:23.775Z,8.73
2023-02-22T07:12:52.498Z,8.34
2023-02-22T07:15:21.772Z,8.48
2023-02-22T07:17:48.454Z,8.51
2023-02-22T07:20:15.169Z,9.10
2023-02-22T07:22:41.698Z,9.42
2023-02-22T07:25:11.293Z,9.48
2023-02-22T07:27:39.799Z,9.43
2023-02-22T07:30:16.348Z,9.85
2023-02-22T07:32:44.182Z,10.32
2023-02-22T07:35:16.847Z,10.44
2023-02-22T07:37:43.820Z,10.52
2023-02-22T07:40:11.625Z,10.85
2023-02-22T07:42:56.152Z,11.20
2023-02-22T07:45:24.609Z,10.97
2023-02-22T07:47:51.500Z,10.91
2023-02-22T07:50:19.189Z,11.00
2023-02-22T07:52:50.884Z,11.07
2023-02-22T07:55:20.177Z,11.29
2023-02-22T07:57:48.152Z,11.31
2023-02-22T08:00:17.203Z,11.64
2023-02-22T08:02:44.108Z,11.38
2023-02-22T08:05:11.481Z,11.48
2023-02-22T08:07:38.156Z,11.95
2023-02-22T08:10:07.753Z,12.32
2023-02-22T08:12:36.377Z,12.66
2023-02-22T08:15:05.420Z,13.05
2023-02-22T08:17:31.982Z,13.32
2023-02-22T08:19:58.615Z,13.74
2023-02-22T08:22:27.528Z,14.07
2023-02-22T08:24:54.807Z,14.13
2023-02-22T08:27:29.016Z,14.26
2023-02-22T08:29:56.935Z,14.63
2023-02-22T08:32:24.174Z,14.92
2023-02-22T08:34:51.194Z,15.22
2023-02-22T08:37:18.166Z,15.39
2023-02-22T08:39:45.138Z,15.73
2023-02-22T08:42:11.970Z,16.32
2023-02-22T08:44:39.553Z,16.86
2023-02-22T08:47:07.276Z,17.06
2023-02-22T08:49:33.906Z,17.64
2023-02-22T08:52:00.410Z,18.11
2023-02-22T08:54:26.955Z,18.03
2023-02-22T08:56:53.598Z,18.21
2023-02-22T08:59:20.132Z,19.32
2023-02-22T09:01:49.552Z,19.57
2023-02-22T09:04:16.227Z,19.80
2023-02-22T09:06:44.110Z,20.29
2023-02-22T09:09:10.746Z,20.40
2023-02-22T09:11:37.262Z,21.09
2023-02-22T09:14:03.853Z,22.80
2023-02-22T09:16:31.111Z,22.40
2023-02-22T09:18:57.718Z,23.09
2023-02-22T09:21:24.227Z,23.42
2023-02-22T09:23:50.791Z,24.35
2023-02-22T09:26:17.284Z,23.08
2023-02-22T09:28:43.820Z,24.22
2023-02-22T09:31:10.399Z,24.81
2023-02-22T09:33:36.977Z,24.70
2023-02-22T09:36:03.789Z,24.20
2023-02-22T09:38:30.414Z,24.43
2023-02-22T09:41:23.611Z,24.58
2023-02-22T09:44:18.371Z,23.69
2023-02-22T09:46:46.823Z,21.71
2023-02-22T09:49:58.666Z,20.61
2023-02-22T09:52:30.031Z,19.46
2023-02-22T09:55:31.056Z,19.04
2023-02-22T09:58:01.672Z,18.46
2023-02-22T10:00:33.865Z,18.20
2023-02-22T10:03:16.506Z,17.80
2023-02-22T10:05:49.348Z,17.56
2023-02-22T10:08:19.052Z,17.56
2023-02-22T10:10:48.804Z,17.27
2023-02-22T10:13:28.008Z,17.44
2023-02-22T10:16:33.418Z,17.58
2023-02-22T10:19:27.929Z,17.38
2023-02-22T10:22:16.243Z,17.33
2023-02-22T10:24:45.709Z,17.38
2023-02-22T10:27:19.089Z,17.49
2023-02-22T10:30:18.890Z,17.45
2023-02-22T10:33:15.685Z,17.64
2023-02-22T10:35:46.842Z,17.74
2023-02-22T10:38:20.354Z,17.96
2023-02-22T10:40:55.358Z,18.29
2023-02-22T10:43:23.518Z,18.16
2023-02-22T10:45:56.036Z,18.00
2023-02-22T10:48:26.403Z,18.09
2023-02-22T10:50:58.947Z,18.28
2023-02-22T10:53:27.728Z,18.58
2023-02-22T10:56:22.631Z,18.58
2023-02-22T10:58:50.382Z,18.58
2023-02-22T11:01:34.920Z,18.74
2023-02-22T11:04:11.826Z,18.91
2023-02-22T11:06:39.924Z,19.18
2023-02-22T11:09:10.401Z,19.03
2023-02-22T11:11:38.067Z,19.16
2023-02-22T11:14:06.788Z,19.25
2023-02-22T11:16:40.714Z,19.35
2023-02-22T11:19:16.233Z,19.50
2023-02-22T11:21:43.945Z,19.76
2023-02-22T11:24:14.433Z,20.03
2023-02-22T11:26:45.150Z,20.08
2023-02-22T11:29:32.362Z,20.09
2023-02-22T11:32:02.997Z,19.97
2023-02-22T11:34:32.363Z,20.24
2023-02-22T11:37:15.775Z,20.46
2023-02-22T11:39:43.947Z,20.44
2023-02-22T11:42:24.920Z,20.52
2023-02-22T11:45:35.313Z,20.40
2023-02-22T11:48:05.152Z,20.37
2023-02-22T11:50:34.758Z,20.42
2023-02-22T11:53:39.071Z,20.67
2023-02-22T11:56:35.614Z,20.74
2023-02-22T11:59:27.953Z,20.87
2023-02-22T12:02:37.403Z,21.04
2023-02-22T12:05:24.510Z,21.10
2023-02-22T12:08:26.108Z,21.08
2023-02-22T12:11:18.344Z,21.09
2023-02-22T12:14:09.897Z,21.14
2023-02-22T12:17:03.728Z,21.03
2023-02-22T12:19:41.668Z,21.06
2023-02-22T12:22:33.623Z,21.18
2023-02-22T12:27:55.951Z,21.21
2023-02-22T12:30:31.212Z,21.32
2023-02-22T12:33:06.348Z,21.43
2023-02-22T12:35:40.422Z,21.56
2023-02-22T12:38:14.626Z,21.48
2023-02-22T12:41:22.626Z,21.57
2023-02-22T12:43:57.593Z,21.60
2023-02-22T12:46:30.585Z,21.50
2023-02-22T12:49:14.006Z,21.53
2023-02-22T12:51:52.554Z,21.62
2023-02-22T12:54:37.171Z,21.57
2023-02-22T12:57:20.044Z,21.40
2023-02-22T12:59:56.098Z,21.34
2023-02-22T13:02:35.857Z,21.29
2023-02-22T13:05:02.820Z,21.18
2023-02-22T13:07:49.011Z,21.24
2023-02-22T13:10:50.679Z,21.21
2023-02-22T13:13:35.783Z,21.31
2023-02-22T13:16:18.145Z,21.25
2023-02-22T13:19:01.820Z,21.30
2023-02-22T13:21:39.478Z,21.35
2023-02-22T13:24:26.285Z,21.24
2023-02-22T13:27:10.612Z,21.01
2023-02-22T13:29:44.843Z,20.84
2023-02-22T13:32:29.873Z,21.05
2023-02-22T13:35:21.086Z,20.86
2023-02-22T13:38:07.082Z,20.85
2023-02-22T13:40:52.409Z,20.84
2023-02-22T13:43:49.466Z,20.90
2023-02-22T13:46:43.477Z,21.02
2023-02-22T13:49:44.149Z,20.96
2023-02-22T13:52:17.851Z,21.06
2023-02-22T13:54:54.920Z,21.04
2023-02-22T13:57:51.718Z,21.00
2023-02-22T14:00:24.411Z,20.87
2023-02-22T14:03:15.445Z,20.89
2023-02-22T14:05:42.463Z,20.94
2023-02-22T14:08:25.398Z,20.98
2023-02-22T14:11:32.769Z,20.84
2023-02-22T14:14:01.021Z,20.77
2023-02-22T14:16:33.901Z,20.68
2023-02-22T14:19:22.981Z,20.47
2023-02-22T14:22:02.076Z,20.41
2023-02-22T14:24:42.725Z,20.51
2023-02-22T14:27:10.657Z,20.31
2023-02-22T14:29:37.779Z,20.33
2023-02-22T14:32:15.194Z,20.50
2023-02-22T14:34:44.323Z,20.54
2023-02-22T14:37:26.465Z,20.61
2023-02-22T14:40:12.834Z,20.66
2023-02-22T14:42:45.655Z,20.58
2023-02-22T14:45:24.856Z,20.58
2023-02-22T14:48:27.352Z,20.56
2023-02-22T14:51:20.196Z,20.47
2023-02-22T14:53:51.665Z,20.38
2023-02-22T14:56:44.276Z,20.50
2023-02-22T14:59:24.854Z,20.33
2023-02-22T15:02:11.823Z,20.07
2023-02-22T15:04:41.195Z,19.79
2023-02-22T15:07:20.159Z,19.47
2023-02-22T15:09:48.459Z,19.30
2023-02-22T15:12:30.003Z,18.79
2023-02-22T15:15:21.943Z,18.38
2023-02-22T15:17:54.516Z,17.86
2023-02-22T15:20:24.126Z,17.72
2023-02-22T15:22:51.937Z,17.69
2023-02-22T15:25:25.877Z,17.74
2023-02-22T15:27:52.481Z,17.65
2023-02-22T15:30:29.213Z,17.39
2023-02-22T15:33:04.193Z,17.01
2023-02-22T15:35:33.474Z,16.87
2023-02-22T15:38:01.477Z,16.72
2023-02-22T15:40:33.242Z,16.52
2023-02-22T15:43:10.981Z,16.40
2023-02-22T15:45:43.053Z,16.21
2023-02-22T15:48:14.634Z,15.83
2023-02-22T15:51:09.556Z,15.48
2023-02-22T15:53:50.978Z,15.40
2023-02-22T15:56:33.970Z,15.32
2023-02-22T15:59:09.153Z,14.95
2023-02-22T16:01:42.883Z,14.87
2023-02-22T16:04:21.777Z,14.63
2023-02-22T16:06:50.135Z,14.47
2023-02-22T16:09:26.107Z,14.46
2023-02-22T16:12:11.898Z,14.49
2023-02-22T16:14:38.377Z,14.31
2023-02-22T16:17:31.027Z,14.15
2023-02-22T16:20:00.001Z,14.06
2023-02-22T16:22:35.359Z,14.03
2023-02-22T16:25:21.492Z,13.99
2023-02-22T16:27:59.806Z,13.85
2023-02-22T16:30:32.869Z,13.55
2023-02-22T16:33:05.465Z,13.46
2023-02-22T16:35:35.440Z,13.22
2023-02-22T16:38:02.259Z,13.04
2023-02-22T16:40:47.190Z,12.63
2023-02-22T16:43:17.394Z,12.36
2023-02-22T16:45:44.163Z,12.26
2023-02-22T16:48:20.830Z,12.42
2023-02-22T16:50:51.941Z,12.47
2023-02-22T16:53:21.093Z,12.54
2023-02-22T16:55:48.591Z,12.41
2023-02-22T16:58:16.091Z,12.33
2023-02-22T17:00:43.190Z,12.14
2023-02-22T17:03:20.740Z,12.04
2023-02-22T17:05:47.485Z,11.86
2023-02-22T17:08:16.282Z,11.81
2023-02-22T17:10:43.512Z,11.69
2023-02-22T17:13:22.435Z,11.68
2023-02-22T17:15:51.024Z,11.65
2023-02-22T17:18:22.925Z,11.47
2023-02-22T17:20:51.510Z,11.44
2023-02-22T17:23:19.037Z,11.46
2023-02-22T17:25:55.958Z,11.42
2023-02-22T17:28:24.706Z,11.42
2023-02-22T17:30:53.088Z,11.38
2023-02-22T17:33:26.770Z,11.26
2023-02-22T17:35:55.889Z,11.26
2023-02-22T17:38:22.937Z,11.09
2023-02-22T17:40:54.899Z,10.99
2023-02-22T17:43:22.191Z,11.01
2023-02-22T17:45:49.421Z,11.12
2023-02-22T17:48:17.861Z,10.95
2023-02-22T17:50:46.649Z,10.82
2023-02-22T17:53:13.465Z,10.82
2023-02-22T17:55:41.596Z,10.75
2023-02-22T17:58:14.597Z,10.73
2023-02-22T18:00:45.349Z,10.54
2023-02-22T18:03:21.196Z,10.61
2023-02-22T18:05:50.805Z,10.40
2023-02-22T18:08:17.695Z,10.25
2023-02-22T18:10:45.704Z,10.12
2023-02-22T18:13:17.885Z,10.24
2023-02-22T18:15:45.844Z,9.94
2023-02-22T18:18:13.259Z,9.90
2023-02-22T18:20:44.303Z,9.73
2023-02-22T18:23:16.199Z,9.64
2023-02-22T18:26:03.801Z,9.52
2023-02-22T18:28:35.870Z,9.45
2023-02-22T18:31:07.695Z,9.48
2023-02-22T18:33:34.324Z,9.43
2023-02-22T18:36:00.823Z,9.55
2023-02-22T18:38:27.364Z,9.60
2023-02-22T18:41:06.173Z,9.64
2023-02-22T18:43:36.275Z,9.71
2023-02-22T18:46:12.052Z,9.75
2023-02-22T18:48:39.558Z,9.74
2023-02-22T18:51:10.431Z,9.72
2023-02-22T18:53:38.586Z,9.68
2023-02-22T18:56:14.218Z,9.48
2023-02-22T18:58:43.240Z,9.33
2023-02-22T19:01:16.412Z,9.31
2023-02-22T19:03:43.192Z,9.26
2023-02-22T19:06:10.451Z,8.94
2023-02-22T19:08:39.725Z,8.96
2023-02-22T19:11:19.226Z,9.04
2023-02-22T19:13:47.508Z,8.94
2023-02-22T19:16:17.342Z,8.85
2023-02-22T19:18:44.264Z,8.66
2023-02-22T19:21:12.323Z,8.50
2023-02-22T19:23:48.626Z,8.53
2023-02-22T19:26:18.722Z,8.40
2023-02-22T19:28:47.353Z,8.45
2023-02-22T19:31:18.776Z,8.47
2023-02-22T19:33:47.981Z,8.52
2023-02-22T19:36:15.144Z,8.63
2023-02-22T19:38:41.985Z,8.67
2023-02-22T19:41:21.869Z,8.57
2023-02-22T19:43:50.355Z,8.31
2023-02-22T19:46:21.478Z,8.16
2023-02-22T19:48:52.145Z,8.12
2023-02-22T19:51:21.286Z,8.13
2023-02-22T19:53:47.890Z,8.02
2023-02-22T19:56:16.989Z,8.03
2023-02-22T19:58:46.555Z,8.02
2023-02-22T20:01:29.096Z,8.01
2023-02-22T20:04:01.653Z,7.97
2023-02-22T20:06:31.519Z,7.90
2023-02-22T20:08:58.146Z,8.14
2023-02-22T20:11:25.375Z,8.11
2023-02-22T20:13:52.365Z,7.96
2023-02-22T20:16:18.974Z,8.20
2023-02-22T20:18:46.902Z,8.14
2023-02-22T20:21:28.032Z,8.09
2023-02-22T20:23:57.302Z,7.98
2023-02-22T20:26:25.926Z,7.80
2023-02-22T20:28:53.210Z,7.90
2023-02-22T20:31:21.212Z,7.99
2023-02-22T20:33:52.301Z,8.13
2023-02-22T20:36:19.515Z,8.08
2023-02-22T20:38:46.157Z,7.89
2023-02-22T20:41:15.934Z,7.61
2023-02-22T20:43:42.671Z,7.61
2023-02-22T20:46:09.290Z,7.51
2023-02-22T20:48:35.930Z,7.38
2023-02-22T20:51:10.475Z,7.30
2023-02-22T20:53:39.498Z,7.29
2023-02-22T20:56:06.833Z,7.32
2023-02-22T20:58:33.537Z,7.25
2023-02-22T21:01:05.256Z,6.84
2023-02-22T21:03:36.005Z,6.97
2023-02-22T21:06:05.398Z,7.02
2023-02-22T21:08:32.955Z,7.02
2023-02-22T21:10:59.937Z,6.95
2023-02-22T21:13:26.704Z,7.03
2023-02-22T21:15:53.610Z,6.78
2023-02-22T21:18:22.933Z,6.88
2023-02-22T21:20:50.546Z,6.85
2023-02-22T21:38:55.583Z,6.89
2023-02-22T21:41:24.895Z,6.79
2023-02-22T21:43:52.178Z,6.71
2023-02-22T21:46:19.791Z,6.68
2023-02-22T21:48:50.105Z,6.76
2023-02-22T21:51:25.559Z,6.80
2023-02-22T21:53:55.195Z,6.68
2023-02-22T21:56:27.181Z,6.53
2023-02-22T21:58:59.291Z,6.34
2023-02-22T22:01:31.543Z,6.09
2023-02-22T22:04:00.281Z,5.87
2023-02-22T22:06:28.789Z,5.79
2023-02-22T22:08:56.736Z,5.71
2023-02-22T22:11:25.158Z,5.50
2023-02-22T22:13:57.579Z,5.53
2023-02-22T22:16:27.236Z,5.42
2023-02-22T22:18:54.758Z,5.33
2023-02-22T22:21:23.247Z,5.29
2023-02-22T22:23:54.358Z,5.31
2023-02-22T22:26:24.609Z,5.21
2023-02-22T22:28:58.051Z,5.24
2023-02-22T22:31:28.749Z,5.26
2023-02-22T22:33:56.712Z,5.29
2023-02-22T22:36:26.639Z,5.33
2023-02-22T22:38:57.528Z,5.26
2023-02-22T22:41:28.204Z,5.29
2023-02-22T22:43:56.273Z,5.25
2023-02-22T22:46:23.368Z,5.09
2023-02-22T22:48:49.962Z,4.96
2023-02-22T22:51:20.943Z,4.92
2023-02-22T22:53:49.153Z,5.04
2023-02-22T22:56:26.425Z,4.98
2023-02-22T22:58:58.775Z,4.90
2023-02-22T23:01:32.530Z,4.81
2023-02-22T23:04:02.404Z,4.83
2023-02-22T23:06:41.516Z,4.83
2023-02-22T23:09:11.554Z,4.70
2023-02-22T23:11:44.908Z,4.45
2023-02-22T23:14:24.240Z,4.46
2023-02-22T23:17:03.359Z,4.42
2023-02-22T23:19:31.836Z,4.38
2023-02-22T23:21:59.720Z,4.46
2023-02-22T23:24:27.573Z,4.61
2023-02-22T23:26:55.278Z,4.64
2023-02-22T23:29:26.099Z,4.56
2023-02-22T23:31:54.557Z,4.49
2023-02-22T23:34:23.194Z,4.58
2023-02-22T23:36:53.734Z,4.63
2023-02-22T23:39:21.726Z,4.58
2023-02-22T23:41:59.714Z,4.49
2023-02-22T23:44:28.037Z,4.51
2023-02-22T23:46:55.288Z,4.51
2023-02-22T23:49:25.296Z,4.36
2023-02-22T23:51:52.688Z,3.98
2023-02-22T23:54:19.895Z,4.10
2023-02-22T23:56:53.742Z,4.01
2023-02-22T23:59:20.279Z,4.04
